Time;durP1;ratioP1;P1;durP2;ratioP2;P2;SDS_P1;SDS_P2;PMS_P1;PMS_P2;Temp;Humidity;BMP_temperature;BMP_pressure;BME280_temperature;BME280_humidity;BME280_pressure;Samples;Min_cycle;Max_cycle;Signal;HPM_P1;HPM_P2
2022/10/25 00:00:18;;;;;;;9.43;1.92;;;;;;;6.52;100.00;93251.66;2126972;27;20461;-72
2022/10/25 00:01:29;;;;;;;4.40;1.48;;;;;;;6.54;100.00;93252.03;2131430;27;20027;-71
2022/10/25 00:02:33;;;;;;;5.63;1.27;;;;;;;6.49;100.00;93252.41;2131080;27;20048;-73
2022/10/25 00:03:34;;;;;;;5.57;1.40;;;;;;;6.62;100.00;93249.34;2130854;27;20034;-72
2022/10/25 00:04:34;;;;;;;7.07;1.70;;;;;;;6.57;100.00;93245.94;2131391;27;20038;-72
2022/10/25 00:05:37;;;;;;;3.58;1.42;;;;;;;6.57;100.00;93242.53;2127637;27;20026;-72
2022/10/25 00:06:38;;;;;;;3.38;1.52;;;;;;;6.50;100.00;93245.25;2131281;27;20477;-73
2022/10/25 00:07:39;;;;;;;5.57;1.63;;;;;;;6.56;100.00;93244.44;2131314;27;20062;-73
2022/10/25 00:08:40;;;;;;;6.47;1.45;;;;;;;6.51;100.00;93242.19;2131242;27;20026;-72
2022/10/25 00:09:41;;;;;;;2.95;1.20;;;;;;;6.59;100.00;93245.56;2131279;27;20025;-71
2022/10/25 00:10:42;;;;;;;3.40;1.50;;;;;;;6.68;100.00;93247.81;2126649;27;20402;-72
2022/10/25 00:11:43;;;;;;;4.03;1.58;;;;;;;6.77;100.00;93248.91;2131574;27;20035;-72
2022/10/25 00:12:45;;;;;;;6.53;2.15;;;;;;;6.62;100.00;93244.78;2123261;27;20495;-71
2022/10/25 00:13:48;;;;;;;4.22;1.90;;;;;;;6.69;100.00;93246.66;2131021;27;20022;-72
2022/10/25 00:14:49;;;;;;;6.95;1.58;;;;;;;6.73;100.00;93240.19;2131543;27;20034;-73
2022/10/25 00:15:50;;;;;;;8.50;1.83;;;;;;;6.64;100.00;93239.84;2121056;27;20061;-73
2022/10/25 00:16:51;;;;;;;2.90;1.55;;;;;;;6.65;100.00;93238.72;2131314;27;20031;-71
2022/10/25 00:17:52;;;;;;;5.05;1.80;;;;;;;6.61;100.00;93242.53;2131188;27;20568;-73
2022/10/25 00:18:53;;;;;;;7.10;1.65;;;;;;;6.52;100.00;93238.38;2130767;27;20142;-72
2022/10/25 00:19:54;;;;;;;4.47;2.00;;;;;;;6.46;100.00;93239.19;2131175;27;20033;-73
2022/10/25 00:20:55;;;;;;;5.78;1.70;;;;;;;6.43;100.00;93240.69;2129375;27;20057;-73
2022/10/25 00:21:58;;;;;;;4.88;1.92;;;;;;;6.46;100.00;93239.19;2131245;27;20019;-72
2022/10/25 00:22:59;;;;;;;4.80;1.73;;;;;;;6.46;100.00;93247.16;2131070;27;20027;-73
2022/10/25 00:24:00;;;;;;;5.32;2.10;;;;;;;6.42;100.00;93241.09;2131109;27;20037;-72
2022/10/25 00:25:00;;;;;;;5.00;1.60;;;;;;;6.38;100.00;93251.72;2131198;27;20022;-73
2022/10/25 00:26:04;;;;;;;4.53;1.40;;;;;;;6.34;100.00;93243.00;2127711;27;20047;-72
2022/10/25 00:27:05;;;;;;;5.38;1.77;;;;;;;6.40;100.00;93243.38;2126461;27;20030;-73
2022/10/25 00:28:06;;;;;;;3.78;1.85;;;;;;;6.26;100.00;93242.28;2131255;27;20086;-71
2022/10/25 00:29:08;;;;;;;7.05;1.67;;;;;;;6.22;100.00;93246.09;2131196;27;20139;-72
2022/10/25 00:30:10;;;;;;;6.65;1.90;;;;;;;6.18;100.00;93240.78;2130881;27;20175;-72
2022/10/25 00:31:14;;;;;;;2.70;1.23;;;;;;;6.29;100.00;93246.81;2131142;27;20063;-73
2022/10/25 00:32:15;;;;;;;4.05;1.60;;;;;;;6.25;100.00;93240.00;2123952;27;20047;-71
2022/10/25 00:33:16;;;;;;;7.75;2.10;;;;;;;6.25;100.00;93245.31;2130898;27;20027;-72
2022/10/25 00:34:17;;;;;;;11.25;2.00;;;;;;;6.23;100.00;93236.97;2131182;27;20027;-73
2022/10/25 00:35:18;;;;;;;6.40;1.80;;;;;;;6.33;100.00;93244.16;2131101;27;20025;-73
2022/10/25 00:36:22;;;;;;;6.15;2.03;;;;;;;6.28;100.00;93241.91;2131102;27;20041;-73
2022/10/25 00:37:23;;;;;;;6.20;1.70;;;;;;;6.19;100.00;93242.31;2122174;27;20085;-72
2022/10/25 00:38:24;;;;;;;6.00;1.83;;;;;;;6.19;100.00;93244.97;2121986;27;20049;-73
2022/10/25 00:39:25;;;;;;;8.77;1.85;;;;;;;6.19;100.00;93242.31;2121937;27;20058;-72
2022/10/25 00:40:26;;;;;;;5.93;1.88;;;;;;;6.13;100.00;93235.88;2130782;27;20111;-72
2022/10/25 00:41:30;;;;;;;5.97;2.05;;;;;;;6.18;100.00;93235.47;2131201;27;20138;-73
2022/10/25 00:42:31;;;;;;;9.82;2.50;;;;;;;6.24;100.00;93233.97;2127608;27;20027;-71
2022/10/25 00:43:41;;;;;;;3.33;1.52;;;;;;;6.09;100.00;93237.78;2130771;27;20488;-72
2022/10/25 00:44:49;;;;;;;7.70;2.03;;;;;;;6.06;100.00;93246.53;2131036;27;20019;-73
2022/10/25 00:45:50;;;;;;;3.30;1.55;;;;;;;6.00;100.00;93243.50;2124840;27;20032;-72
2022/10/25 00:46:52;;;;;;;2.55;1.73;;;;;;;6.03;100.00;93241.97;2130959;27;20054;-72
2022/10/25 00:48:04;;;;;;;5.82;1.95;;;;;;;5.99;100.00;93244.63;2129151;27;20468;-72
2022/10/25 00:49:13;;;;;;;10.57;2.10;;;;;;;5.94;100.00;93246.94;2131258;27;20117;-72
2022/10/25 00:50:38;;;;;;;3.92;1.80;;;;;;;5.95;100.00;93251.09;2122227;27;20033;-72
2022/10/25 00:52:06;;;;;;;5.90;2.10;;;;;;;5.87;100.00;93244.25;2130969;27;20040;-71
2022/10/25 00:53:12;;;;;;;4.63;1.77;;;;;;;5.92;100.00;93246.53;2126988;27;20035;-73
2022/10/25 00:54:18;;;;;;;8.00;1.88;;;;;;;5.90;100.00;93246.91;2131026;27;20054;-73
2022/10/25 00:55:22;;;;;;;5.70;1.85;;;;;;;5.91;100.00;93253.72;2130625;27;20039;-72
2022/10/25 00:56:28;;;;;;;7.20;1.90;;;;;;;5.87;100.00;93247.66;2129989;27;20034;-74
2022/10/25 00:57:33;;;;;;;4.32;1.55;;;;;;;5.86;100.00;93251.44;2128325;27;20034;-72
2022/10/25 00:58:37;;;;;;;5.70;1.83;;;;;;;5.82;100.00;93250.69;2129533;27;20039;-71
2022/10/25 00:59:39;;;;;;;5.60;1.70;;;;;;;5.80;100.00;93247.69;2130970;27;20019;-71
2022/10/25 01:00:40;;;;;;;5.20;1.60;;;;;;;5.78;100.00;93245.41;2128783;27;20034;-72
2022/10/25 01:01:41;;;;;;;6.82;1.58;;;;;;;5.78;100.00;93249.94;2130844;27;20101;-71
2022/10/25 01:02:43;;;;;;;3.95;1.60;;;;;;;5.79;100.00;93252.25;2128066;27;20034;-73
2022/10/25 01:03:46;;;;;;;2.45;1.80;;;;;;;5.72;100.00;93249.59;2130641;27;20034;-72
2022/10/25 01:04:49;;;;;;;4.35;1.88;;;;;;;5.71;100.00;93255.28;2123288;27;20109;-71
2022/10/25 01:05:52;;;;;;;8.32;1.85;;;;;;;5.66;100.00;93248.44;2130777;27;20022;-72
2022/10/25 01:06:53;;;;;;;6.85;1.88;;;;;;;5.59;100.00;93245.06;2130624;27;20027;-73
2022/10/25 01:07:54;;;;;;;5.13;1.70;;;;;;;5.60;100.00;93249.97;2129561;27;20023;-72
2022/10/25 01:08:56;;;;;;;7.80;1.83;;;;;;;5.60;100.00;93249.22;2130978;27;20457;-71
2022/10/25 01:09:57;;;;;;;10.05;1.90;;;;;;;5.58;100.00;93252.25;2130787;27;20026;-73
2022/10/25 01:10:58;;;;;;;5.07;1.77;;;;;;;5.62;100.00;93246.94;2130641;27;20412;-72
2022/10/25 01:11:59;;;;;;;8.02;1.65;;;;;;;5.59;100.00;93250.38;2130854;27;20416;-72
2022/10/25 01:13:01;;;;;;;15.55;1.77;;;;;;;5.52;100.00;93237.84;2119471;27;20035;-72
2022/10/25 01:14:05;;;;;;;9.35;1.77;;;;;;;5.58;100.00;93243.56;2120081;27;20031;-73
2022/10/25 01:15:06;;;;;;;6.43;1.95;;;;;;;5.53;100.00;93244.66;2127164;27;20466;-71
2022/10/25 01:16:44;;;;;;;7.55;1.90;;;;;;;5.50;100.00;93237.50;2118816;27;20027;-72
2022/10/25 01:18:24;;;;;;;27.73;2.55;;;;;;;5.50;100.00;93234.84;2113891;27;20037;-72
2022/10/25 01:19:41;;;;;;;24.17;2.67;;;;;;;5.47;100.00;93232.94;2087349;28;20526;-72
2022/10/25 01:20:50;;;;;;;25.83;2.35;;;;;;;5.48;100.00;93231.78;2087562;28;20029;-71
2022/10/25 01:22:11;;;;;;;28.20;2.10;;;;;;;5.47;100.00;93236.34;2103497;27;20050;-71
2022/10/25 01:23:40;;;;;;;73.70;3.83;;;;;;;5.41;100.00;93237.88;2121577;27;20034;-71
2022/10/25 01:25:08;;;;;;;78.70;3.00;;;;;;;5.44;100.00;93231.78;2121281;27;20025;-71
2022/10/25 01:26:21;;;;;;;27.92;2.55;;;;;;;5.43;100.00;93242.78;2121082;27;20027;-71
2022/10/25 01:27:59;;;;;;;22.90;2.38;;;;;;;5.46;100.00;93232.19;2118260;27;20027;-72
2022/10/25 01:29:31;;;;;;;38.83;2.63;;;;;;;5.40;100.00;93236.38;2115951;27;20080;-73
2022/10/25 01:30:57;;;;;;;48.67;2.50;;;;;;;5.43;100.00;93240.13;2118611;27;20083;-71
2022/10/25 01:32:25;;;;;;;17.60;1.67;;;;;;;5.42;100.00;93236.72;2117311;27;20041;-71
2022/10/25 01:33:53;;;;;;;56.20;2.78;;;;;;;5.42;100.00;93234.06;2116483;27;20503;-71
2022/10/25 01:35:17;;;;;;;53.40;2.95;;;;;;;5.44;100.00;93239.75;2116588;27;20034;-72
2022/10/25 01:36:33;;;;;;;25.83;2.05;;;;;;;5.42;100.00;93238.63;2114887;27;20361;-72
2022/10/25 01:38:11;;;;;;;41.60;2.10;;;;;;;5.36;100.00;93243.56;2121973;27;20031;-73
2022/10/25 01:39:26;;;;;;;49.28;2.40;;;;;;;5.34;100.00;93256.41;2117910;27;20134;-72
2022/10/25 01:41:01;;;;;;;28.77;2.08;;;;;;;5.26;100.00;93241.66;2117342;27;20035;-72
2022/10/25 01:42:21;;;;;;;28.80;2.10;;;;;;;5.29;100.00;93241.66;2118556;27;20035;-71
2022/10/25 01:43:47;;;;;;;27.30;1.95;;;;;;;5.27;100.00;93237.88;2115918;27;20030;-71
2022/10/25 01:45:00;;;;;;;24.23;1.80;;;;;;;5.18;100.00;93240.13;2115148;27;20463;-72
2022/10/25 01:46:24;;;;;;;56.67;2.25;;;;;;;5.16;100.00;93242.41;2120255;27;20059;-71
2022/10/25 01:47:35;;;;;;;26.65;1.90;;;;;;;5.16;100.00;93242.41;2116712;27;20506;-71
2022/10/25 01:48:44;;;;;;;16.70;1.65;;;;;;;5.15;100.00;93231.06;2122067;27;20083;-71
2022/10/25 01:49:56;;;;;;;66.28;2.75;;;;;;;5.14;100.00;93236.75;2106165;27;20450;-73
2022/10/25 01:51:13;;;;;;;8.13;1.58;;;;;;;5.14;100.00;93234.84;2122031;27;20369;-73
2022/10/25 01:52:22;;;;;;;16.33;1.40;;;;;;;5.14;100.00;93244.69;2113473;27;20560;-71
2022/10/25 01:53:23;;;;;;;14.40;1.50;;;;;;;5.18;100.00;93242.78;2121716;27;20114;-71
2022/10/25 01:54:25;;;;;;;7.63;1.15;;;;;;;5.18;100.00;93245.41;2121808;27;20445;-71
2022/10/25 01:55:34;;;;;;;14.25;1.20;;;;;;;5.19;100.00;93242.41;2118465;27;20385;-72
2022/10/25 01:57:10;;;;;;;5.15;0.88;;;;;;;5.16;100.00;93245.06;2121269;27;20038;-73
2022/10/25 01:58:33;;;;;;;8.52;1.00;;;;;;;5.00;100.00;93246.19;2113873;27;20509;-71
2022/10/25 01:59:37;;;;;;;12.25;1.10;;;;;;;5.04;100.00;93254.13;2110958;27;20114;-71
2022/10/25 02:00:54;;;;;;;6.28;1.38;;;;;;;5.11;100.00;93250.72;2121390;27;20030;-71
2022/10/25 02:02:01;;;;;;;10.88;1.10;;;;;;;5.03;100.00;93256.00;2116995;27;20117;-72
2022/10/25 02:03:29;;;;;;;20.88;1.20;;;;;;;4.96;100.00;93256.03;2121962;27;20080;-73
2022/10/25 02:04:36;;;;;;;8.05;1.00;;;;;;;4.99;100.00;93259.78;2118202;27;20103;-71
2022/10/25 02:05:56;;;;;;;4.70;0.90;;;;;;;4.96;100.00;93256.03;2118393;27;20034;-73
2022/10/25 02:07:05;;;;;;;14.75;1.10;;;;;;;5.01;100.00;93260.19;2117051;27;20037;-72
2022/10/25 02:08:22;;;;;;;5.00;1.00;;;;;;;5.05;100.00;93253.75;2121744;27;20031;-73
2022/10/25 02:09:32;;;;;;;5.10;0.70;;;;;;;5.07;100.00;93258.66;2116076;27;20035;-71
2022/10/25 02:10:35;;;;;;;;;;;;;;;5.07;100.00;93255.28;2120461;27;20035;-71
2022/10/25 02:11:37;;;;;;;1.23;0.73;;;;;;;5.04;100.00;93256.75;2122231;27;19907;-71
2022/10/25 02:12:59;;;;;;;1.20;0.80;;;;;;;4.90;100.00;93251.44;2122129;27;20023;-71
2022/10/25 02:16:12;;;;;;;;;;;;;;;4.90;100.00;93256.75;2135040;27;20560;-69
2022/10/25 02:17:25;;;;;;;1.73;0.73;;;;;;;4.93;100.00;93251.47;2133693;27;20424;-71
2022/10/25 02:18:30;;;;;;;2.78;0.77;;;;;;;4.89;100.00;93249.94;2133327;27;20484;-72
2022/10/25 02:19:39;;;;;;;12.65;0.93;;;;;;;4.84;100.00;93245.78;2133389;27;20034;-71
2022/10/25 02:20:42;;;;;;;3.83;0.82;;;;;;;4.86;100.00;93243.50;2125317;27;20031;-73
2022/10/25 02:21:47;;;;;;;32.28;1.30;;;;;;;4.76;100.00;93237.06;2124882;27;20032;-71
2022/10/25 02:22:49;;;;;;;94.53;2.58;;;;;;;4.77;100.00;93243.09;2133551;27;20413;-71
2022/10/25 02:23:53;;;;;;;57.92;1.73;;;;;;;4.71;100.00;93244.63;2133051;27;20045;-71
2022/10/25 02:24:56;;;;;;;95.70;2.70;;;;;;;4.67;100.00;93241.19;2133490;27;20026;-71
2022/10/25 02:25:59;;;;;;;109.00;2.20;;;;;;;4.71;100.00;93241.97;2133248;27;20348;-71
2022/10/25 02:27:03;;;;;;;186.23;3.85;;;;;;;4.72;100.00;93241.59;2135537;27;20119;-71
2022/10/25 02:28:07;;;;;;;151.68;3.55;;;;;;;4.72;100.00;93249.53;2133464;27;20038;-73
2022/10/25 02:29:10;;;;;;;46.10;1.15;;;;;;;4.76;100.00;93241.59;2133485;27;20105;-71
2022/10/25 02:30:11;;;;;;;133.32;2.72;;;;;;;4.70;100.00;93243.09;2133500;27;20035;-72
2022/10/25 02:31:18;;;;;;;178.07;3.40;;;;;;;4.77;100.00;93246.50;2133424;27;20036;-71
2022/10/25 02:32:20;;;;;;;47.78;1.38;;;;;;;4.80;100.00;93242.38;2136008;27;20053;-72
2022/10/25 02:33:21;;;;;;;136.35;3.65;;;;;;;4.75;100.00;93245.38;2133178;27;20022;-71
2022/10/25 02:34:23;;;;;;;83.05;1.90;;;;;;;4.80;100.00;93247.66;2133232;27;20659;-72
2022/10/25 02:35:25;;;;;;;66.00;1.75;;;;;;;4.87;100.00;93242.34;2133400;27;20063;-71
2022/10/25 02:36:26;;;;;;;60.95;1.60;;;;;;;5.01;100.00;93241.66;2133313;27;20493;-73
2022/10/25 02:37:27;;;;;;;110.50;2.55;;;;;;;5.01;100.00;93242.41;2122257;27;20024;-71
2022/10/25 02:38:28;;;;;;;190.30;3.47;;;;;;;5.02;100.00;93243.91;2123804;27;20043;-73
2022/10/25 02:39:29;;;;;;;131.85;3.88;;;;;;;5.05;100.00;93240.50;2135448;27;20039;-72
2022/10/25 02:40:30;;;;;;;317.02;6.10;;;;;;;5.15;100.00;93239.00;2133287;27;20041;-73
2022/10/25 02:41:32;;;;;;;30.30;1.30;;;;;;;5.13;100.00;93237.84;2124181;27;20027;-71
2022/10/25 02:42:35;;;;;;;78.30;2.00;;;;;;;5.27;100.00;93240.53;2123831;27;20026;-71
2022/10/25 02:43:36;;;;;;;149.13;3.05;;;;;;;5.13;100.00;93249.19;2133036;27;20551;-71
2022/10/25 02:44:37;;;;;;;39.65;2.08;;;;;;;5.12;100.00;93237.09;2133207;27;20035;-71
2022/10/25 02:45:38;;;;;;;105.68;2.13;;;;;;;5.13;100.00;93243.16;2133319;27;20027;-73
2022/10/25 02:46:39;;;;;;;35.35;1.50;;;;;;;5.14;100.00;93242.03;2133265;27;20484;-72
2022/10/25 02:47:40;;;;;;;120.97;3.55;;;;;;;5.11;100.00;93235.59;2133427;27;20548;-71
2022/10/25 02:48:41;;;;;;;25.10;1.23;;;;;;;5.17;100.00;93241.25;2133333;27;20034;-71
2022/10/25 02:49:42;;;;;;;53.58;1.70;;;;;;;5.21;100.00;93236.72;2133503;27;20023;-74
2022/10/25 02:50:43;;;;;;;67.18;2.10;;;;;;;5.14;100.00;93242.03;2133359;27;20146;-71
2022/10/25 02:51:44;;;;;;;50.85;1.75;;;;;;;5.27;100.00;93245.84;2129060;27;20059;-73
2022/10/25 02:52:45;;;;;;;56.88;1.70;;;;;;;5.49;100.00;93241.28;2137471;27;20049;-72
2022/10/25 02:53:46;;;;;;;35.00;1.33;;;;;;;5.49;100.00;93250.00;2133415;27;20030;-71
2022/10/25 02:54:48;;;;;;;63.22;2.10;;;;;;;5.58;100.00;93241.66;2133238;27;20043;-73
2022/10/25 02:56:04;;;;;;;49.58;1.95;;;;;;;5.43;100.00;93238.25;2133216;27;20027;-71
2022/10/25 02:57:05;;;;;;;240.75;4.90;;;;;;;5.43;100.00;93240.13;2132666;27;20049;-71
2022/10/25 02:58:06;;;;;;;180.77;3.92;;;;;;;5.36;100.00;93246.22;2133224;27;20411;-71
2022/10/25 02:59:10;;;;;;;224.93;5.28;;;;;;;5.23;100.00;93235.22;2133361;27;20388;-72
2022/10/25 03:00:11;;;;;;;237.85;5.03;;;;;;;5.25;100.00;93237.47;2133064;27;20022;-73
2022/10/25 03:01:14;;;;;;;178.73;3.70;;;;;;;5.20;100.00;93238.63;2124060;27;20019;-71
2022/10/25 03:02:15;;;;;;;105.90;3.40;;;;;;;5.23;100.00;93245.06;2120656;27;20023;-71
2022/10/25 03:03:16;;;;;;;75.47;2.58;;;;;;;5.46;100.00;93236.72;2133044;27;20038;-71
2022/10/25 03:04:17;;;;;;;112.05;2.95;;;;;;;5.41;100.00;93237.88;2133285;27;20064;-71
2022/10/25 03:05:18;;;;;;;41.65;1.67;;;;;;;5.38;100.00;93243.91;2133229;27;20035;-72
2022/10/25 03:06:19;;;;;;;86.30;2.50;;;;;;;5.27;100.00;93240.53;2133214;27;20026;-72
2022/10/25 03:07:20;;;;;;;78.68;2.45;;;;;;;5.27;100.00;93243.94;2132773;27;20460;-74
2022/10/25 03:08:21;;;;;;;116.97;3.30;;;;;;;5.22;100.00;93241.66;2136492;27;20086;-71
2022/10/25 03:09:22;;;;;;;92.43;3.00;;;;;;;5.23;100.00;93239.78;2133163;27;20034;-72
2022/10/25 03:10:23;;;;;;;104.18;3.05;;;;;;;5.22;100.00;93241.66;2133052;27;20110;-72
2022/10/25 03:11:24;;;;;;;113.53;3.63;;;;;;;5.21;100.00;93248.09;2133124;27;20071;-72
2022/10/25 03:12:25;;;;;;;254.18;5.13;;;;;;;5.21;100.00;93247.31;2133120;27;20053;-74
2022/10/25 03:13:26;;;;;;;167.27;3.97;;;;;;;5.22;100.00;93241.66;2132767;27;20030;-72
2022/10/25 03:14:27;;;;;;;117.80;2.88;;;;;;;5.21;100.00;93242.03;2133140;27;20054;-72
2022/10/25 03:15:28;;;;;;;97.93;2.40;;;;;;;5.17;100.00;93243.91;2132628;27;20389;-72
2022/10/25 03:16:29;;;;;;;107.93;2.75;;;;;;;5.21;100.00;93242.78;2133289;27;20500;-72
2022/10/25 03:17:30;;;;;;;152.68;3.83;;;;;;;5.21;100.00;93242.03;2123755;27;20113;-73
2022/10/25 03:18:31;;;;;;;198.40;4.07;;;;;;;5.17;100.00;93238.63;2114915;28;20449;-72
2022/10/25 03:19:32;;;;;;;161.57;3.47;;;;;;;5.15;100.00;93240.91;2123754;27;20066;-72
2022/10/25 03:20:33;;;;;;;127.88;2.42;;;;;;;5.13;100.00;93240.50;2132956;27;20050;-73
2022/10/25 03:21:34;;;;;;;129.43;3.45;;;;;;;5.09;100.00;93245.78;2133366;27;20384;-72
2022/10/25 03:22:35;;;;;;;90.53;3.38;;;;;;;5.09;100.00;93251.09;2133040;27;20023;-72
2022/10/25 03:23:36;;;;;;;83.47;2.55;;;;;;;5.12;100.00;93244.28;2132274;27;20025;-73
2022/10/25 03:24:37;;;;;;;56.42;1.92;;;;;;;5.08;100.00;93241.63;2132957;27;20106;-72
2022/10/25 03:25:39;;;;;;;44.75;1.70;;;;;;;5.09;100.00;93237.09;2136418;27;20356;-72
2022/10/25 03:26:40;;;;;;;62.50;1.77;;;;;;;5.10;100.00;93242.03;2132231;27;20380;-72
2022/10/25 03:27:41;;;;;;;27.10;1.40;;;;;;;5.14;100.00;93239.38;2127125;27;20035;-73
2022/10/25 03:28:42;;;;;;;85.63;2.45;;;;;;;4.98;100.00;93239.75;2129488;27;20418;-72
2022/10/25 03:29:43;;;;;;;53.10;2.78;;;;;;;4.98;100.00;93239.75;2131723;27;20031;-72
2022/10/25 03:30:44;;;;;;;11.00;1.17;;;;;;;5.21;100.00;93240.13;2127512;27;20198;-72
2022/10/25 03:31:44;;;;;;;26.58;1.23;;;;;;;5.11;100.00;93240.13;2127339;27;20026;-71
2022/10/25 03:32:46;;;;;;;17.75;1.23;;;;;;;5.03;100.00;93242.75;2127481;27;20026;-72
2022/10/25 03:33:47;;;;;;;17.77;1.40;;;;;;;5.00;100.00;93246.19;2126489;27;20044;-72
2022/10/25 03:34:48;;;;;;;7.68;1.02;;;;;;;4.98;100.00;93248.44;2123493;27;20027;-72
2022/10/25 03:35:52;;;;;;;16.98;1.27;;;;;;;5.00;100.00;93246.19;2127325;27;20042;-73
2022/10/25 03:36:53;;;;;;;9.93;1.30;;;;;;;4.93;100.00;93240.88;2127143;27;20027;-72
2022/10/25 03:37:54;;;;;;;5.43;1.20;;;;;;;4.95;100.00;93248.44;2125870;27;20024;-73
2022/10/25 03:38:55;;;;;;;8.38;1.35;;;;;;;4.84;100.00;93253.72;2127700;27;20034;-73
2022/10/25 03:39:57;;;;;;;8.55;1.15;;;;;;;4.89;100.00;93252.59;2129714;27;20022;-71
2022/10/25 03:40:58;;;;;;;10.52;1.17;;;;;;;4.86;100.00;93243.50;2127281;27;20042;-72
2022/10/25 03:41:59;;;;;;;23.25;1.42;;;;;;;4.80;100.00;93250.31;2115544;27;20043;-72
2022/10/25 03:42:59;;;;;;;4.28;1.20;;;;;;;4.81;100.00;93254.47;2117957;27;20081;-72
2022/10/25 03:44:02;;;;;;;8.02;1.23;;;;;;;4.80;100.00;93260.91;2126891;27;20019;-71
2022/10/25 03:45:03;;;;;;;5.53;1.42;;;;;;;4.83;100.00;93254.88;2128241;27;20496;-71
2022/10/25 03:46:04;;;;;;;7.40;1.13;;;;;;;4.72;100.00;93254.81;2127301;27;20031;-71
2022/10/25 03:47:05;;;;;;;10.65;1.13;;;;;;;4.75;100.00;93258.63;2126852;27;20361;-71
2022/10/25 03:48:07;;;;;;;16.20;1.42;;;;;;;4.71;100.00;93247.25;2126340;27;20104;-71
2022/10/25 03:49:08;;;;;;;17.45;1.40;;;;;;;4.77;100.00;93251.03;2126065;27;20019;-72
2022/10/25 03:50:09;;;;;;;12.98;1.10;;;;;;;4.80;100.00;93258.25;2126736;27;20027;-71
2022/10/25 03:51:10;;;;;;;41.42;2.30;;;;;;;4.76;100.00;93255.59;2127140;27;20101;-71
2022/10/25 03:52:11;;;;;;;8.30;1.33;;;;;;;4.78;100.00;93250.69;2123175;27;20391;-72
2022/10/25 03:53:13;;;;;;;76.22;3.00;;;;;;;4.75;100.00;93250.69;2126776;27;20758;-72
2022/10/25 03:54:14;;;;;;;33.53;2.33;;;;;;;4.83;100.00;93254.06;2127069;27;20094;-71
2022/10/25 03:55:15;;;;;;;26.45;1.67;;;;;;;4.83;100.00;93257.50;2126582;27;20083;-72
2022/10/25 03:56:17;;;;;;;55.58;3.25;;;;;;;4.79;100.00;93256.75;2127192;27;20033;-71
2022/10/25 03:57:18;;;;;;;45.08;2.00;;;;;;;4.88;100.00;93259.03;2123352;27;20038;-72
2022/10/25 03:58:19;;;;;;;53.20;1.90;;;;;;;4.80;100.00;93258.25;2117835;27;20055;-71
2022/10/25 03:59:20;;;;;;;42.38;2.05;;;;;;;4.85;100.00;93265.06;2117842;27;20088;-71
2022/10/25 04:00:21;;;;;;;15.48;1.38;;;;;;;4.79;100.00;93251.44;2126562;27;20526;-71
2022/10/25 04:01:22;;;;;;;36.67;1.63;;;;;;;4.78;100.00;93261.28;2126980;27;20649;-71
2022/10/25 04:02:23;;;;;;;53.20;2.22;;;;;;;4.77;100.00;93264.28;2126944;27;20035;-73
2022/10/25 04:03:24;;;;;;;20.38;1.88;;;;;;;4.79;100.00;93262.03;2126777;27;20059;-71
2022/10/25 04:04:25;;;;;;;17.55;1.40;;;;;;;4.80;100.00;93256.34;2127116;27;20049;-73
2022/10/25 04:05:26;;;;;;;58.55;2.35;;;;;;;4.76;100.00;93258.22;2129873;27;20531;-71
2022/10/25 04:06:27;;;;;;;44.15;2.05;;;;;;;4.74;100.00;93260.50;2127007;27;20122;-71
2022/10/25 04:07:28;;;;;;;155.18;3.95;;;;;;;4.75;100.00;93256.72;2126891;27;20031;-72
2022/10/25 04:08:29;;;;;;;50.53;2.30;;;;;;;4.80;100.00;93258.25;2126943;27;20103;-71
2022/10/25 04:09:30;;;;;;;31.45;1.90;;;;;;;4.83;100.00;93265.44;2115457;27;20035;-71
2022/10/25 04:10:31;;;;;;;50.42;2.30;;;;;;;4.81;100.00;93262.41;2117409;27;20023;-71
2022/10/25 04:11:33;;;;;;;80.80;2.97;;;;;;;4.82;100.00;93260.50;2126730;27;20030;-75
2022/10/25 04:12:33;;;;;;;69.47;2.58;;;;;;;4.85;100.00;93265.81;2116901;27;20405;-72
2022/10/25 04:13:54;;;;;;;51.38;2.42;;;;;;;4.85;100.00;93265.06;2120112;27;20110;-72
2022/10/25 04:14:55;;;;;;;25.80;2.33;;;;;;;4.89;100.00;93265.84;2126932;27;20037;-72
2022/10/25 04:15:57;;;;;;;27.55;1.70;;;;;;;4.88;100.00;93264.31;2125825;27;20039;-72
2022/10/25 04:16:58;;;;;;;50.67;2.45;;;;;;;4.87;100.00;93271.50;2117812;27;20374;-72
2022/10/25 04:17:59;;;;;;;7.90;1.60;;;;;;;4.87;100.00;93258.25;2117734;27;20030;-71
2022/10/25 04:19:00;;;;;;;16.60;2.00;;;;;;;4.85;100.00;93257.13;2126935;27;20027;-71
2022/10/25 04:20:01;;;;;;;24.55;1.70;;;;;;;4.87;100.00;93270.72;2126708;27;20663;-71
2022/10/25 04:21:03;;;;;;;14.43;1.77;;;;;;;4.84;100.00;93256.38;2117300;27;20057;-71
2022/10/25 04:22:04;;;;;;;13.57;1.67;;;;;;;4.81;100.00;93265.06;2117817;27;20027;-73
2022/10/25 04:23:04;;;;;;;25.95;2.03;;;;;;;4.71;100.00;93263.16;2126326;27;20080;-72
2022/10/25 04:24:05;;;;;;;19.48;2.00;;;;;;;4.80;100.00;93264.31;2126853;27;20122;-71
2022/10/25 04:25:07;;;;;;;14.95;1.80;;;;;;;4.75;100.00;93259.38;2126792;27;20030;-72
2022/10/25 04:26:08;;;;;;;52.97;2.78;;;;;;;4.73;100.00;93264.28;2129645;27;20041;-73
2022/10/25 04:27:09;;;;;;;26.88;1.80;;;;;;;4.75;100.00;93267.31;2128893;27;20103;-71
2022/10/25 04:28:10;;;;;;;38.85;2.28;;;;;;;4.75;100.00;93261.28;2126785;27;20117;-75
2022/10/25 04:29:11;;;;;;;43.00;2.42;;;;;;;4.79;100.00;93262.03;2126909;27;20033;-73
2022/10/25 04:30:12;;;;;;;43.13;2.67;;;;;;;4.88;100.00;93259.78;2126756;27;20046;-73
2022/10/25 04:31:13;;;;;;;51.05;3.25;;;;;;;4.89;100.00;93266.59;2126235;27;20353;-72
2022/10/25 04:32:14;;;;;;;69.22;3.53;;;;;;;4.98;100.00;93260.94;2126708;27;20075;-73
2022/10/25 04:33:15;;;;;;;28.13;2.28;;;;;;;5.03;100.00;93260.56;2117109;27;20668;-70
2022/10/25 04:34:16;;;;;;;51.95;2.70;;;;;;;5.07;100.00;93260.56;2117645;27;20124;-71
2022/10/25 04:35:17;;;;;;;66.15;2.50;;;;;;;4.99;100.00;93259.78;2126707;27;20033;-72
2022/10/25 04:36:18;;;;;;;22.67;2.65;;;;;;;4.90;100.00;93260.16;2117114;27;20042;-75
2022/10/25 04:37:19;;;;;;;90.68;3.13;;;;;;;4.83;100.00;93264.66;2117609;27;20039;-73
2022/10/25 04:38:20;;;;;;;24.75;1.98;;;;;;;4.80;100.00;93263.53;2126476;27;20054;-73
2022/10/25 04:39:21;;;;;;;43.40;2.30;;;;;;;4.82;100.00;93266.56;2125904;27;20051;-72
2022/10/25 04:40:22;;;;;;;31.33;2.60;;;;;;;4.85;100.00;93260.53;2126716;27;20022;-72
2022/10/25 04:41:23;;;;;;;6.28;1.63;;;;;;;4.76;100.00;93258.22;2127395;27;20023;-71
2022/10/25 04:42:24;;;;;;;6.78;1.60;;;;;;;4.75;100.00;93262.03;2129368;27;20046;-72
2022/10/25 04:43:27;;;;;;;3.78;1.65;;;;;;;4.77;100.00;93262.41;2125813;27;20030;-72
2022/10/25 04:44:28;;;;;;;3.95;1.67;;;;;;;4.69;100.00;93255.56;2126581;27;20035;-72
2022/10/25 04:45:29;;;;;;;10.15;1.58;;;;;;;4.74;100.00;93259.72;2126693;27;20059;-74
2022/10/25 04:46:30;;;;;;;13.32;1.60;;;;;;;4.60;100.00;93259.69;2126726;27;20026;-71
2022/10/25 04:47:31;;;;;;;5.88;2.00;;;;;;;4.55;100.00;93258.94;2127886;27;20041;-71
2022/10/25 04:48:36;;;;;;;3.03;1.60;;;;;;;4.52;100.00;93265.00;2126068;27;20031;-72
2022/10/25 04:49:37;;;;;;;8.48;1.70;;;;;;;4.58;100.00;93257.44;2126764;27;20461;-73
2022/10/25 04:50:38;;;;;;;4.43;1.40;;;;;;;4.61;100.00;93261.22;2125966;27;20058;-74
2022/10/25 04:51:39;;;;;;;9.02;1.65;;;;;;;4.63;100.00;93259.72;2126298;27;20015;-72
2022/10/25 04:52:40;;;;;;;11.60;1.77;;;;;;;4.62;100.00;93258.19;2126616;27;20033;-72
2022/10/25 04:53:41;;;;;;;4.72;1.90;;;;;;;4.61;100.00;93258.56;2126262;27;20022;-71
2022/10/25 04:54:42;;;;;;;2.63;1.60;;;;;;;4.60;100.00;93260.44;2126385;27;20026;-71
2022/10/25 04:55:43;;;;;;;6.40;1.80;;;;;;;4.64;100.00;93255.19;2126420;27;20051;-72
2022/10/25 04:56:44;;;;;;;15.80;1.88;;;;;;;4.67;100.00;93255.19;2126157;27;20034;-71
2022/10/25 04:57:45;;;;;;;54.30;2.72;;;;;;;4.65;100.00;93260.09;2123338;27;20418;-71
2022/10/25 04:58:46;;;;;;;54.65;2.83;;;;;;;4.79;100.00;93259.38;2125406;27;20523;-70
2022/10/25 04:59:47;;;;;;;49.33;2.72;;;;;;;4.74;100.00;93262.38;2127513;27;20531;-73
2022/10/25 05:00:48;;;;;;;17.30;1.75;;;;;;;4.68;100.00;93266.53;2124557;27;20026;-72
2022/10/25 05:01:49;;;;;;;46.85;2.50;;;;;;;4.66;100.00;93269.56;2122731;27;20038;-71
2022/10/25 05:02:53;;;;;;;6.25;1.90;;;;;;;4.70;100.00;93270.34;2126386;27;20030;-72
2022/10/25 05:03:54;;;;;;;46.53;2.30;;;;;;;4.65;100.00;93269.91;2125362;27;20039;-71